Time;durP1;ratioP1;P1;durP2;ratioP2;P2;SDS_P1;SDS_P2;PMS_P1;PMS_P2;Temp;Humidity;BMP_temperature;BMP_pressure;BME280_temperature;BME280_humidity;BME280_pressure;Samples;Min_cycle;Max_cycle;Signal;HPM_P1;HPM_P2
2023/08/03 00:02:25;;;;;;;30.60;5.30;;;27.00;55.60;;;;;;5024354;28;20674;-74
2023/08/03 00:04:52;;;;;;;36.43;6.27;;;27.10;55.60;;;;;;5024529;28;20671;-71
2023/08/03 00:07:19;;;;;;;35.87;5.90;;;27.00;55.50;;;;;;5025016;28;20215;-75
2023/08/03 00:09:47;;;;;;;47.07;6.50;;;27.00;55.50;;;;;;5023371;28;20227;-71
2023/08/03 00:12:17;;;;;;;29.87;5.43;;;27.00;55.60;;;;;;5023648;28;20744;-77
2023/08/03 00:14:44;;;;;;;26.90;5.17;;;27.00;55.60;;;;;;5006164;28;20205;-72
2023/08/03 00:17:13;;;;;;;31.43;5.63;;;27.00;55.50;;;;;;5008706;28;20295;-71
2023/08/03 00:19:39;;;;;;;32.17;5.20;;;27.00;55.50;;;;;;5025445;28;20192;-72
2023/08/03 00:22:06;;;;;;;28.73;5.20;;;27.00;55.60;;;;;;5025677;28;20247;-77
2023/08/03 00:24:33;;;;;;;26.93;5.00;;;27.00;55.60;;;;;;5025366;28;20804;-78
2023/08/03 00:27:00;;;;;;;25.63;5.03;;;27.00;55.60;;;;;;5033380;28;20214;-75
2023/08/03 00:29:27;;;;;;;36.60;5.97;;;26.90;55.50;;;;;;5023633;28;20224;-72
2023/08/03 00:31:54;;;;;;;37.57;5.93;;;26.90;55.50;;;;;;5024029;28;20232;-71
2023/08/03 00:34:23;;;;;;;29.60;5.50;;;26.90;55.60;;;;;;5024861;28;20228;-72
2023/08/03 00:36:49;;;;;;;43.17;6.53;;;26.90;55.50;;;;;;5023735;28;20200;-72
2023/08/03 00:39:16;;;;;;;27.77;5.37;;;26.90;55.60;;;;;;5023323;28;20307;-71
2023/08/03 00:41:43;;;;;;;25.57;5.13;;;26.90;56.20;;;;;;5025356;28;20300;-73
2023/08/03 00:44:10;;;;;;;30.40;5.10;;;26.90;55.60;;;;;;5023648;28;20680;-71
2023/08/03 00:46:37;;;;;;;25.87;5.33;;;26.90;55.60;;;;;;5023905;28;20197;-73
2023/08/03 00:49:04;;;;;;;40.87;6.27;;;26.90;55.60;;;;;;5024091;28;20270;-71
2023/08/03 00:51:32;;;;;;;34.10;5.77;;;26.90;55.60;;;;;;5019371;28;20315;-73
2023/08/03 00:53:59;;;;;;;47.33;6.47;;;26.90;55.60;;;;;;5023903;28;20209;-76
2023/08/03 00:56:26;;;;;;;39.50;6.27;;;26.90;55.60;;;;;;5024010;28;20284;-74
2023/08/03 00:58:53;;;;;;;51.50;7.27;;;26.90;55.70;;;;;;5025489;28;20642;-71
2023/08/03 01:01:21;;;;;;;34.83;5.67;;;26.90;55.70;;;;;;5025904;28;20983;-76
2023/08/03 01:03:48;;;;;;;52.10;7.83;;;26.90;55.70;;;;;;5026530;28;20556;-77
2023/08/03 01:06:15;;;;;;;30.93;5.70;;;26.80;55.60;;;;;;5015012;28;20208;-77
2023/08/03 01:08:43;;;;;;;35.53;6.07;;;26.90;56.30;;;;;;5027305;28;20280;-82
2023/08/03 01:11:10;;;;;;;32.17;5.57;;;26.90;56.30;;;;;;5025647;28;20692;-73
2023/08/03 01:13:37;;;;;;;35.97;5.87;;;26.80;55.70;;;;;;5028616;28;20611;-84
2023/08/03 01:16:09;;;;;;;29.43;5.37;;;26.80;55.70;;;;;;5026802;28;20284;-83
2023/08/03 01:18:36;;;;;;;38.07;6.00;;;26.80;55.70;;;;;;5030923;28;20204;-78
2023/08/03 01:21:06;;;;;;;37.07;5.83;;;26.80;55.70;;;;;;5028259;28;20212;-79
2023/08/03 01:23:35;;;;;;;31.27;5.50;;;26.80;55.70;;;;;;5025606;28;20197;-76
2023/08/03 01:26:02;;;;;;;34.77;5.83;;;26.80;55.70;;;;;;5021149;28;20288;-73
2023/08/03 01:28:29;;;;;;;29.43;5.37;;;26.80;55.70;;;;;;5027214;28;20240;-72
2023/08/03 01:30:56;;;;;;;36.90;6.33;;;26.80;55.70;;;;;;5026724;28;20292;-73
2023/08/03 01:33:23;;;;;;;36.43;5.97;;;26.80;55.70;;;;;;5026130;28;20624;-82
2023/08/03 01:35:52;;;;;;;26.53;4.90;;;26.80;55.80;;;;;;5030501;28;20223;-80
2023/08/03 01:38:19;;;;;;;30.97;5.80;;;26.80;55.80;;;;;;5038514;28;20276;-74
2023/08/03 01:40:47;;;;;;;39.37;6.30;;;26.80;55.80;;;;;;5026071;28;20215;-74
2023/08/03 01:43:15;;;;;;;31.17;5.73;;;26.80;55.80;;;;;;5025793;28;20680;-75
2023/08/03 01:45:41;;;;;;;33.27;5.63;;;26.70;55.70;;;;;;5027209;28;20305;-76
2023/08/03 01:48:08;;;;;;;28.60;5.20;;;26.80;55.80;;;;;;5027335;28;20284;-79
2023/08/03 01:50:35;;;;;;;37.90;6.50;;;26.80;55.90;;;;;;5025112;28;20297;-74
2023/08/03 01:53:02;;;;;;;26.80;5.23;;;26.70;55.80;;;;;;5024660;28;20234;-80
2023/08/03 01:55:29;;;;;;;40.93;6.40;;;26.70;55.80;;;;;;5025184;28;20201;-80
2023/08/03 01:57:58;;;;;;;27.97;5.10;;;26.70;55.80;;;;;;5026188;28;20201;-76
2023/08/03 02:00:25;;;;;;;51.67;7.23;;;26.70;55.80;;;;;;5023603;28;20276;-80
2023/08/03 02:02:52;;;;;;;35.83;5.73;;;26.80;55.90;;;;;;5026296;28;20667;-78
2023/08/03 02:05:19;;;;;;;31.80;5.70;;;26.70;55.80;;;;;;5025359;28;20217;-80
2023/08/03 02:07:53;;;;;;;39.33;6.30;;;26.70;55.90;;;;;;5024831;28;20240;-74
2023/08/03 02:10:21;;;;;;;58.10;8.17;;;26.70;56.40;;;;;;5030465;28;20215;-73
2023/08/03 02:12:48;;;;;;;24.60;5.27;;;26.70;55.90;;;;;;5026245;28;20328;-71
2023/08/03 02:15:17;;;;;;;42.00;6.63;;;26.70;55.90;;;;;;5022312;28;20641;-71
2023/08/03 02:17:44;;;;;;;30.80;5.70;;;26.70;55.90;;;;;;5022810;28;20207;-71
2023/08/03 02:20:12;;;;;;;28.37;5.43;;;26.70;55.90;;;;;;5025801;28;20232;-71
2023/08/03 02:22:39;;;;;;;32.93;5.53;;;26.70;55.90;;;;;;5023007;28;20203;-71
2023/08/03 02:25:07;;;;;;;30.73;5.47;;;26.70;55.90;;;;;;5024229;28;20283;-71
2023/08/03 02:27:34;;;;;;;29.33;5.47;;;26.70;55.90;;;;;;5025667;28;20291;-71
2023/08/03 02:30:01;;;;;;;29.37;5.47;;;26.70;55.90;;;;;;5026248;28;20252;-71
2023/08/03 02:32:29;;;;;;;30.33;5.83;;;26.70;55.90;;;;;;5023908;28;20221;-71
2023/08/03 02:34:56;;;;;;;37.50;6.13;;;26.70;55.90;;;;;;5024071;28;20197;-70
2023/08/03 02:37:23;;;;;;;28.30;5.10;;;26.60;56.50;;;;;;5025255;28;20201;-71
2023/08/03 02:39:50;;;;;;;31.40;5.33;;;26.60;55.90;;;;;;5030338;28;20208;-71
2023/08/03 02:42:17;;;;;;;64.70;8.03;;;26.70;56.00;;;;;;5029688;28;20252;-73
2023/08/03 02:44:44;;;;;;;37.53;5.97;;;26.70;56.00;;;;;;5026030;28;20201;-71
2023/08/03 02:47:11;;;;;;;47.03;7.27;;;26.60;55.90;;;;;;5023455;28;20205;-72
2023/08/03 02:49:39;;;;;;;28.77;5.47;;;26.70;56.00;;;;;;5026149;28;20231;-77
2023/08/03 02:52:06;;;;;;;31.03;5.83;;;26.60;56.00;;;;;;4987658;28;1098265;-70
2023/08/03 02:54:33;;;;;;;37.20;5.83;;;26.60;56.00;;;;;;5023848;28;20285;-71
2023/08/03 02:57:00;;;;;;;43.83;6.57;;;26.70;56.00;;;;;;5026136;28;20283;-73
2023/08/03 02:59:27;;;;;;;26.53;5.07;;;26.60;56.00;;;;;;5023254;28;20208;-71
2023/08/03 03:01:54;;;;;;;31.73;5.70;;;26.60;56.00;;;;;;5026158;28;20212;-70
2023/08/03 03:04:21;;;;;;;49.80;7.23;;;26.60;56.00;;;;;;5023418;28;20204;-71
2023/08/03 03:06:49;;;;;;;42.27;6.67;;;26.60;56.00;;;;;;5025549;28;20616;-73
2023/08/03 03:09:16;;;;;;;29.27;5.67;;;26.60;56.00;;;;;;5025517;28;20196;-84
2023/08/03 03:11:43;;;;;;;27.57;5.30;;;26.60;56.00;;;;;;5034137;28;20228;-78
2023/08/03 03:14:10;;;;;;;37.57;6.10;;;26.60;56.00;;;;;;5033909;28;20236;-71
2023/08/03 03:16:37;;;;;;;54.83;7.77;;;26.60;56.10;;;;;;5022917;28;20193;-85
2023/08/03 03:19:04;;;;;;;48.23;7.10;;;26.60;56.10;;;;;;5030445;28;20203;-83
2023/08/03 03:21:31;;;;;;;31.83;6.03;;;26.60;56.10;;;;;;5024946;28;20205;-72
2023/08/03 03:23:59;;;;;;;27.13;5.10;;;26.60;56.10;;;;;;5026312;28;20246;-77
2023/08/03 03:26:26;;;;;;;35.70;6.20;;;26.60;56.10;;;;;;5022855;28;20280;-82
2023/08/03 03:28:53;;;;;;;37.27;6.03;;;26.60;56.20;;;;;;5026122;28;20272;-76
2023/08/03 03:31:20;;;;;;;36.23;6.27;;;26.60;56.20;;;;;;5023222;28;20201;-75
2023/08/03 03:33:47;;;;;;;33.50;5.80;;;26.60;56.20;;;;;;5027974;28;20248;-73
2023/08/03 03:36:14;;;;;;;47.23;6.77;;;26.60;56.20;;;;;;5018735;28;20307;-78
2023/08/03 03:38:41;;;;;;;25.77;5.20;;;26.60;56.20;;;;;;5023931;28;20247;-75
2023/08/03 03:41:09;;;;;;;21.13;4.77;;;26.50;56.10;;;;;;5025810;28;20252;-77
2023/08/03 03:43:36;;;;;;;34.43;5.77;;;26.60;56.20;;;;;;5025947;28;20302;-76
2023/08/03 03:46:03;;;;;;;39.50;6.33;;;26.60;56.20;;;;;;5023643;28;20291;-81
2023/08/03 03:48:30;;;;;;;27.10;5.17;;;26.60;56.20;;;;;;5018388;28;20204;-80
2023/08/03 03:50:57;;;;;;;32.23;5.93;;;26.50;56.10;;;;;;5022545;28;20236;-75
2023/08/03 03:53:24;;;;;;;29.77;5.57;;;26.60;56.20;;;;;;5025787;28;20264;-79
2023/08/03 03:55:51;;;;;;;25.67;5.13;;;26.50;56.10;;;;;;5023794;28;20289;-81
2023/08/03 03:58:19;;;;;;;25.10;4.90;;;26.60;56.20;;;;;;5023161;28;20309;-82
2023/08/03 04:00:46;;;;;;;36.00;5.83;;;26.50;56.10;;;;;;5022959;28;20625;-81
2023/08/03 04:03:13;;;;;;;27.27;5.23;;;26.50;56.10;;;;;;5025222;28;20277;-83
2023/08/03 04:05:40;;;;;;;24.93;4.93;;;26.50;56.10;;;;;;5023630;28;20209;-82
2023/08/03 04:08:06;;;;;;;40.43;6.37;;;26.50;56.10;;;;;;5024760;28;20292;-82
2023/08/03 04:10:35;;;;;;;25.33;4.80;;;26.50;56.10;;;;;;5024309;28;20211;-76
2023/08/03 04:13:02;;;;;;;26.17;4.83;;;26.50;56.10;;;;;;5025206;28;20225;-73
2023/08/03 04:15:30;;;;;;;39.17;6.23;;;26.50;56.10;;;;;;5024477;28;20283;-78
2023/08/03 04:17:57;;;;;;;31.93;5.50;;;26.50;56.10;;;;;;5025411;28;20203;-82
2023/08/03 04:20:24;;;;;;;23.10;5.03;;;26.50;56.10;;;;;;5025451;28;20292;-75
2023/08/03 04:22:51;;;;;;;20.83;4.93;;;26.50;56.10;;;;;;5025225;28;20292;-75
2023/08/03 04:25:18;;;;;;;33.37;5.60;;;26.50;56.10;;;;;;5023474;28;20200;-71
2023/08/03 04:27:44;;;;;;;22.23;4.93;;;26.50;56.10;;;;;;5030416;28;20200;-75
2023/08/03 04:30:13;;;;;;;32.43;5.73;;;26.50;56.10;;;;;;5025495;28;20243;-72
2023/08/03 04:32:42;;;;;;;39.13;6.33;;;26.50;56.10;;;;;;5023341;28;20235;-75
2023/08/03 04:35:10;;;;;;;30.07;5.50;;;26.50;56.10;;;;;;5024548;28;20249;-71
2023/08/03 04:37:37;;;;;;;24.83;5.07;;;26.50;56.10;;;;;;5024893;28;20201;-74
2023/08/03 04:40:04;;;;;;;29.10;5.60;;;26.50;56.10;;;;;;5024932;28;20311;-73
2023/08/03 04:42:31;;;;;;;26.43;5.00;;;26.50;56.10;;;;;;5023335;28;20211;-71
2023/08/03 04:44:58;;;;;;;26.47;5.43;;;26.50;56.10;;;;;;5041427;28;20196;-71
2023/08/03 04:47:25;;;;;;;27.50;5.37;;;26.50;56.10;;;;;;5043907;28;20525;-73
2023/08/03 04:49:54;;;;;;;30.93;5.67;;;26.40;56.60;;;;;;5040784;28;20553;-71
2023/08/03 04:52:21;;;;;;;25.83;4.80;;;26.40;56.60;;;;;;5022433;28;20722;-72
2023/08/03 04:54:48;;;;;;;24.80;4.90;;;26.40;56.40;;;;;;5024266;28;20248;-72
2023/08/03 04:57:15;;;;;;;30.07;5.47;;;26.50;56.40;;;;;;5023839;28;20240;-76
2023/08/03 04:59:42;;;;;;;29.97;5.93;;;26.50;56.90;;;;;;5021043;28;20217;-71
2023/08/03 05:02:09;;;;;;;30.10;5.40;;;26.60;56.30;;;;;;5024208;28;20200;-76
2023/08/03 05:04:36;;;;;;;44.90;6.80;;;26.60;56.30;;;;;;5022041;28;20226;-73
2023/08/03 05:07:05;;;;;;;34.83;6.10;;;26.50;56.20;;;;;;5023981;28;20728;-71
2023/08/03 05:09:32;;;;;;;29.07;5.47;;;26.50;56.20;;;;;;5025038;28;20756;-72
2023/08/03 05:11:59;;;;;;;27.07;5.37;;;26.50;56.10;;;;;;5023821;28;20720;-75
2023/08/03 05:14:26;;;;;;;32.67;5.70;;;26.50;56.20;;;;;;5023982;28;20316;-71
2023/08/03 05:16:53;;;;;;;26.80;5.10;;;26.50;56.20;;;;;;5022920;28;20219;-72
2023/08/03 05:19:20;;;;;;;27.73;5.10;;;26.50;56.20;;;;;;5041306;28;20287;-71
2023/08/03 05:21:47;;;;;;;27.00;5.00;;;26.50;56.20;;;;;;5031909;28;20212;-75
2023/08/03 05:24:15;;;;;;;89.80;10.83;;;26.50;56.20;;;;;;5016862;28;20209;-76
2023/08/03 05:26:42;;;;;;;26.20;5.17;;;26.50;56.30;;;;;;5012401;28;20232;-74
2023/08/03 05:29:09;;;;;;;29.83;5.47;;;26.50;56.30;;;;;;5023811;28;20304;-75
2023/08/03 05:31:36;;;;;;;29.60;5.57;;;26.50;56.30;;;;;;5023098;28;20200;-72
2023/08/03 05:34:10;;;;;;;29.40;5.37;;;26.50;56.30;;;;;;5024250;28;20221;-71
2023/08/03 05:36:37;;;;;;;27.93;5.17;;;26.50;56.30;;;;;;5024387;28;20675;-71
2023/08/03 05:39:05;;;;;;;26.67;5.13;;;26.50;56.30;;;;;;5024670;28;20798;-73
2023/08/03 05:41:33;;;;;;;23.37;4.90;;;26.50;56.30;;;;;;5024544;28;20201;-75
2023/08/03 05:44:00;;;;;;;44.17;6.47;;;26.50;56.40;;;;;;5025235;28;20208;-72
2023/08/03 05:46:33;;;;;;;32.40;5.87;;;26.50;56.30;;;;;;5025745;28;20201;-70
2023/08/03 05:48:59;;;;;;;39.67;6.43;;;26.50;56.40;;;;;;5028483;27;20243;-70
2023/08/03 05:51:28;;;;;;;50.53;7.47;;;26.50;56.30;;;;;;5025696;28;20571;-71
2023/08/03 05:53:56;;;;;;;37.10;6.30;;;26.50;56.30;;;;;;5029995;28;20260;-71
2023/08/03 05:56:24;;;;;;;35.57;5.70;;;26.50;56.30;;;;;;5026483;28;20265;-71
2023/08/03 05:58:54;;;;;;;31.83;5.67;;;26.50;56.30;;;;;;5026784;28;20207;-70
2023/08/03 06:01:23;;;;;;;30.83;5.50;;;26.50;56.30;;;;;;5026120;28;20280;-71
2023/08/03 06:03:52;;;;;;;25.00;5.03;;;26.40;56.90;;;;;;5026028;28;20205;-74
2023/08/03 06:06:20;;;;;;;35.70;5.90;;;26.50;56.40;;;;;;5026521;28;20291;-71
2023/08/03 06:08:50;;;;;;;41.27;6.23;;;26.40;56.30;;;;;;5025076;28;20237;-70
2023/08/03 06:11:20;;;;;;;32.27;5.83;;;26.40;56.30;;;;;;5026729;28;20285;-71
2023/08/03 06:13:47;;;;;;;40.43;6.37;;;26.40;56.40;;;;;;5022689;28;20288;-71
2023/08/03 06:16:16;;;;;;;36.70;6.07;;;26.40;56.30;;;;;;5020577;28;20572;-71
2023/08/03 06:18:48;;;;;;;26.33;5.03;;;26.50;56.50;;;;;;5027211;28;20615;-75
2023/08/03 06:21:16;;;;;;;26.93;4.90;;;26.40;56.40;;;;;;5027248;28;20209;-71
2023/08/03 06:23:46;;;;;;;32.07;5.70;;;26.50;56.40;;;;;;5017721;28;20205;-70
2023/08/03 06:26:15;;;;;;;29.13;5.33;;;26.40;56.40;;;;;;5020850;28;20216;-71
2023/08/03 06:28:44;;;;;;;30.10;5.57;;;26.40;56.40;;;;;;5025598;28;20289;-71
2023/08/03 06:31:16;;;;;;;28.50;5.50;;;26.50;56.40;;;;;;5026830;28;20625;-73
2023/08/03 06:33:44;;;;;;;21.67;4.97;;;26.40;56.40;;;;;;5024157;28;20252;-74
2023/08/03 06:36:13;;;;;;;38.77;6.40;;;26.40;56.40;;;;;;5026526;28;20211;-74
2023/08/03 06:38:42;;;;;;;35.93;6.30;;;26.50;56.40;;;;;;5025729;28;20205;-71
2023/08/03 06:41:10;;;;;;;20.13;4.60;;;26.40;56.40;;;;;;5021765;28;20309;-78
2023/08/03 06:43:37;;;;;;;26.07;5.07;;;26.40;56.40;;;;;;5024421;28;20720;-72
2023/08/03 06:46:05;;;;;;;29.33;5.43;;;26.50;56.50;;;;;;5025897;28;20208;-77
2023/08/03 06:48:33;;;;;;;32.07;5.27;;;26.40;56.40;;;;;;5028503;28;20205;-76
2023/08/03 06:51:01;;;;;;;56.37;7.97;;;26.40;56.40;;;;;;5024516;28;20292;-78
2023/08/03 06:53:28;;;;;;;29.13;5.30;;;26.50;56.50;;;;;;5024765;28;20606;-74
2023/08/03 06:55:56;;;;;;;27.67;5.23;;;26.50;56.50;;;;;;5037137;27;20568;-78
2023/08/03 06:58:23;;;;;;;30.97;5.53;;;26.50;56.50;;;;;;5023526;28;20291;-79
2023/08/03 07:00:50;;;;;;;32.47;5.63;;;26.50;56.50;;;;;;5026225;28;20628;-74
2023/08/03 07:03:17;;;;;;;29.07;5.07;;;26.50;56.50;;;;;;5025156;28;20308;-73
2023/08/03 07:05:45;;;;;;;37.17;6.33;;;26.50;56.50;;;;;;5031306;27;20287;-70
2023/08/03 07:08:13;;;;;;;26.23;4.87;;;26.50;56.50;;;;;;5082146;27;20197;-73
2023/08/03 07:10:40;;;;;;;48.97;7.40;;;26.50;56.60;;;;;;5056622;27;20947;-73
2023/08/03 07:13:07;;;;;;;25.80;5.13;;;26.50;56.60;;;;;;5091152;27;20858;-72
2023/08/03 07:15:34;;;;;;;35.53;5.93;;;26.50;56.50;;;;;;5025947;28;20292;-72
2023/08/03 07:18:03;;;;;;;27.93;5.30;;;26.50;56.50;;;;;;5028083;27;20288;-74
2023/08/03 07:20:30;;;;;;;37.13;6.30;;;26.50;56.50;;;;;;5026285;28;20283;-72
2023/08/03 07:22:58;;;;;;;30.47;5.70;;;26.50;56.50;;;;;;5024510;28;20201;-80
2023/08/03 07:25:26;;;;;;;40.93;6.53;;;26.60;57.10;;;;;;5024204;28;20841;-79
2023/08/03 07:27:53;;;;;;;27.63;5.33;;;26.50;56.60;;;;;;5023018;28;20261;-81
2023/08/03 07:30:22;;;;;;;26.57;5.30;;;26.50;56.60;;;;;;5022978;28;20201;-80
2023/08/03 07:32:51;;;;;;;30.97;5.83;;;26.60;56.70;;;;;;5024151;28;20200;-81
2023/08/03 07:35:18;;;;;;;24.87;5.17;;;26.60;56.70;;;;;;5035871;28;20249;-76
2023/08/03 07:37:45;;;;;;;39.77;6.50;;;26.60;56.60;;;;;;5027278;28;20312;-74
2023/08/03 07:40:13;;;;;;;25.23;4.90;;;26.60;56.60;;;;;;5024944;28;20303;-75
2023/08/03 07:42:40;;;;;;;53.70;7.83;;;26.60;56.60;;;;;;5029801;28;20204;-77
2023/08/03 07:45:08;;;;;;;28.37;5.20;;;26.60;56.70;;;;;;5024572;28;20201;-76
2023/08/03 07:47:35;;;;;;;22.80;5.10;;;26.60;56.60;;;;;;5025736;27;20224;-78
2023/08/03 07:50:03;;;;;;;30.23;5.67;;;26.60;56.70;;;;;;5024806;28;20287;-78
2023/08/03 07:52:30;;;;;;;27.13;5.17;;;26.60;56.60;;;;;;5025754;28;20194;-79
2023/08/03 07:54:57;;;;;;;48.87;7.30;;;26.60;56.60;;;;;;5024255;28;20609;-75
2023/08/03 07:57:26;;;;;;;19.33;4.63;;;26.60;56.60;;;;;;5025560;28;20291;-70
2023/08/03 07:59:53;;;;;;;47.13;7.30;;;26.60;56.60;;;;;;5024350;28;20288;-73
2023/08/03 08:02:20;;;;;;;43.13;6.87;;;26.70;56.70;;;;;;5022039;28;20201;-86
2023/08/03 08:04:50;;;;;;;61.60;8.33;;;26.70;56.70;;;;;;5023340;28;20256;-82
2023/08/03 08:07:18;;;;;;;30.27;5.80;;;26.70;57.40;;;;;;5024477;28;20571;-78
2023/08/03 08:09:45;;;;;;;34.07;6.03;;;26.70;56.80;;;;;;5027644;28;20288;-78
2023/08/03 08:12:12;;;;;;;30.03;5.93;;;26.70;56.70;;;;;;5023325;28;20760;-77
2023/08/03 08:14:40;;;;;;;40.90;6.80;;;26.70;56.70;;;;;;5023082;28;20255;-77
2023/08/03 08:17:07;;;;;;;23.80;4.93;;;26.70;56.70;;;;;;5023763;28;20236;-78
2023/08/03 08:19:34;;;;;;;24.07;5.63;;;26.70;56.70;;;;;;5024581;28;20612;-83
2023/08/03 08:22:01;;;;;;;28.87;5.90;;;26.70;56.70;;;;;;5024820;28;20195;-67
2023/08/03 08:24:28;;;;;;;23.77;4.70;;;26.70;56.80;;;;;;5034484;28;20211;-75
2023/08/03 08:26:55;;;;;;;42.70;7.30;;;26.70;56.80;;;;;;5030885;28;20277;-69
2023/08/03 08:29:22;;;;;;;20.10;4.40;;;26.70;56.80;;;;;;5024046;28;20201;-70
2023/08/03 08:31:51;;;;;;;45.53;6.90;;;26.70;56.80;;;;;;5026395;28;20200;-71
2023/08/03 08:34:17;;;;;;;32.70;5.73;;;26.70;56.70;;;;;;5129024;27;20320;-66
2023/08/03 08:36:44;;;;;;;24.20;5.47;;;26.70;56.70;;;;;;5021175;28;20189;-67
2023/08/03 08:39:11;;;;;;;30.13;5.90;;;26.70;56.70;;;;;;5025032;28;20235;-68
2023/08/03 08:41:40;;;;;;;22.87;4.97;;;26.70;56.80;;;;;;5037380;28;20204;-73
2023/08/03 08:44:07;;;;;;;23.83;4.70;;;26.70;56.80;;;;;;5025107;28;20210;-66
2023/08/03 08:46:34;;;;;;;27.67;5.50;;;26.80;56.90;;;;;;5023584;28;20271;-72
2023/08/03 08:49:03;;;;;;;21.43;4.73;;;26.70;56.90;;;;;;5024470;28;20237;-71
2023/08/03 08:51:30;;;;;;;28.13;5.43;;;26.80;57.00;;;;;;5024583;28;20244;-71
2023/08/03 08:53:57;;;;;;;34.20;6.00;;;26.80;56.90;;;;;;5023622;28;20254;-68
2023/08/03 08:56:24;;;;;;;32.23;5.73;;;26.80;57.00;;;;;;5025054;28;20296;-68
2023/08/03 08:58:51;;;;;;;24.07;5.10;;;26.80;57.00;;;;;;5023582;28;20197;-68
2023/08/03 09:01:18;;;;;;;23.27;5.03;;;26.80;57.00;;;;;;5023910;28;20212;-67
2023/08/03 09:03:47;;;;;;;32.50;5.80;;;26.80;57.00;;;;;;5024043;28;20216;-67
2023/08/03 09:06:15;;;;;;;26.23;5.13;;;26.80;57.00;;;;;;5024086;28;20209;-68
2023/08/03 09:08:54;;;;;;;23.70;4.87;;;26.90;57.10;;;;;;5023906;28;20200;-68
2023/08/03 09:11:36;;;;;;;24.80;5.27;;;26.90;57.10;;;;;;5023709;28;20672;-67
2023/08/03 09:14:05;;;;;;;25.43;5.03;;;26.90;57.10;;;;;;5025090;28;20319;-68
2023/08/03 09:16:32;;;;;;;29.03;5.73;;;26.90;57.00;;;;;;5023175;28;20679;-67
2023/08/03 09:18:59;;;;;;;24.40;5.00;;;27.00;57.10;;;;;;5024322;28;20208;-67
2023/08/03 09:21:27;;;;;;;41.33;6.57;;;27.00;57.00;;;;;;5026557;28;20256;-68
2023/08/03 09:23:55;;;;;;;29.87;5.50;;;27.00;57.10;;;;;;5028476;28;20283;-69
2023/08/03 09:26:23;;;;;;;26.20;5.07;;;27.00;57.00;;;;;;5027572;28;20203;-68
2023/08/03 09:28:50;;;;;;;36.80;6.07;;;27.00;57.00;;;;;;5024322;28;20201;-67
2023/08/03 09:31:26;;;;;;;23.70;5.07;;;27.10;57.00;;;;;;5030615;28;20280;-67
2023/08/03 09:33:57;;;;;;;26.77;5.17;;;27.10;57.00;;;;;;5026752;28;20320;-67
2023/08/03 09:36:24;;;;;;;29.00;5.70;;;27.10;57.00;;;;;;5010480;28;20720;-68
2023/08/03 09:38:53;;;;;;;43.33;6.97;;;27.10;56.90;;;;;;5026755;28;20224;-68
2023/08/03 09:41:37;;;;;;;21.23;4.70;;;27.10;57.50;;;;;;5028110;28;20199;-69
2023/08/03 09:44:06;;;;;;;23.63;5.03;;;27.20;57.00;;;;;;5027866;28;20638;-71
2023/08/03 09:46:34;;;;;;;25.03;5.30;;;27.20;56.90;;;;;;5026585;28;20296;-68
2023/08/03 09:49:01;;;;;;;19.97;4.93;;;27.20;56.90;;;;;;5026417;28;20200;-69
2023/08/03 09:51:30;;;;;;;26.37;5.40;;;27.20;56.80;;;;;;5025535;28;20289;-68
2023/08/03 09:54:04;;;;;;;33.43;5.87;;;27.30;57.50;;;;;;5026999;28;21029;-67
2023/08/03 09:56:37;;;;;;;24.00;5.27;;;27.20;56.80;;;;;;5027195;28;20209;-67
2023/08/03 09:59:09;;;;;;;24.00;5.07;;;27.20;56.80;;;;;;5027760;28;20205;-67
2023/08/03 10:01:40;;;;;;;19.67;4.67;;;27.20;56.80;;;;;;5026953;28;20232;-70
2023/08/03 10:04:13;;;;;;;26.80;5.33;;;27.30;56.80;;;;;;5025400;28;20201;-68
2023/08/03 10:06:44;;;;;;;48.27;7.27;;;27.30;56.80;;;;;;5025657;28;20211;-73
2023/08/03 10:09:18;;;;;;;27.40;5.47;;;27.30;56.80;;;;;;5025438;28;20233;-74
2023/08/03 10:11:51;;;;;;;22.63;5.27;;;27.30;56.80;;;;;;5026677;28;20209;-75
2023/08/03 10:14:22;;;;;;;26.67;5.37;;;27.30;56.70;;;;;;5026357;27;20224;-69
2023/08/03 10:16:50;;;;;;;20.40;4.97;;;27.30;56.70;;;;;;5025402;28;20760;-70
2023/08/03 10:19:18;;;;;;;36.20;7.07;;;27.30;57.30;;;;;;5025782;28;20193;-68
2023/08/03 10:21:45;;;;;;;25.93;5.57;;;27.30;56.60;;;;;;5027585;28;20255;-66
2023/08/03 10:24:15;;;;;;;33.53;6.90;;;27.30;56.60;;;;;;5032248;28;20201;-68
2023/08/03 10:26:43;;;;;;;31.83;6.07;;;27.30;56.70;;;;;;5027680;28;20682;-74
2023/08/03 10:29:10;;;;;;;33.70;6.47;;;27.30;56.60;;;;;;5026602;28;20193;-73
2023/08/03 10:31:53;;;;;;;31.47;6.97;;;27.30;56.70;;;;;;5026792;28;20205;-67
2023/08/03 10:34:27;;;;;;;29.60;6.40;;;27.30;56.70;;;;;;5025280;28;20323;-84
2023/08/03 10:36:55;;;;;;;33.63;6.83;;;27.30;56.60;;;;;;5026669;28;20287;-84
2023/08/03 10:39:53;;;;;;;30.73;6.10;;;27.40;56.70;;;;;;5025905;28;20228;-81
2023/08/03 10:42:29;;;;;;;31.20;6.83;;;27.40;56.70;;;;;;5038318;28;20295;-82
2023/08/03 10:45:24;;;;;;;23.70;5.77;;;27.40;56.70;;;;;;5027230;28;20631;-82
2023/08/03 10:47:55;;;;;;;35.03;6.77;;;27.40;56.70;;;;;;5026280;28;20209;-80
2023/08/03 10:50:57;;;;;;;34.60;6.10;;;27.40;56.80;;;;;;5025745;28;20254;-74
2023/08/03 10:53:24;;;;;;;33.90;6.60;;;27.40;56.90;;;;;;5026124;28;20734;-92
2023/08/03 10:56:03;;;;;;;26.50;5.87;;;27.40;56.90;;;;;;5027942;28;20228;-90
2023/08/03 10:58:30;;;;;;;36.60;6.63;;;27.50;57.00;;;;;;5025984;28;20275;-70
2023/08/03 11:00:57;;;;;;;28.37;5.57;;;27.50;57.00;;;;;;5026746;28;20201;-69
2023/08/03 11:03:36;;;;;;;39.87;6.73;;;27.50;57.00;;;;;;5030269;27;20195;-84
2023/08/03 11:06:04;;;;;;;44.00;6.93;;;27.60;57.20;;;;;;5020310;28;20281;-74
2023/08/03 11:08:31;;;;;;;29.33;5.83;;;27.60;57.10;;;;;;5020818;28;20205;-81
2023/08/03 11:10:59;;;;;;;26.63;6.43;;;27.60;57.10;;;;;;5025535;28;20679;-79
2023/08/03 11:13:27;;;;;;;48.30;7.93;;;27.70;57.10;;;;;;5023878;28;20213;-74
2023/08/03 11:15:54;;;;;;;25.17;5.67;;;27.70;57.00;;;;;;5024441;28;20233;-80
2023/08/03 11:18:22;;;;;;;32.50;6.13;;;27.70;57.00;;;;;;5025423;28;20290;-82
2023/08/03 11:20:48;;;;;;;30.27;6.20;;;27.70;56.90;;;;;;5025646;27;20316;-77
2023/08/03 11:23:15;;;;;;;27.57;5.60;;;27.70;56.80;;;;;;5026300;28;20299;-76
2023/08/03 11:25:43;;;;;;;40.50;6.90;;;27.70;56.90;;;;;;5025910;28;20200;-83
2023/08/03 11:28:18;;;;;;;28.40;5.77;;;27.80;57.00;;;;;;5026049;28;20287;-80
2023/08/03 11:30:45;;;;;;;29.13;6.07;;;27.80;56.90;;;;;;5015689;28;20284;-79
2023/08/03 11:33:13;;;;;;;24.37;5.60;;;27.80;56.90;;;;;;5023029;28;20203;-81
2023/08/03 11:35:40;;;;;;;36.37;6.17;;;27.80;57.00;;;;;;5033890;28;20252;-78
2023/08/03 11:38:08;;;;;;;41.97;6.87;;;27.80;56.90;;;;;;5020633;28;20248;-77
2023/08/03 11:40:36;;;;;;;31.30;6.53;;;27.80;56.90;;;;;;5024194;28;20205;-77
2023/08/03 11:43:03;;;;;;;26.47;5.67;;;27.80;56.90;;;;;;5024514;28;20283;-75
2023/08/03 11:45:35;;;;;;;23.67;5.33;;;27.80;56.80;;;;;;5024254;28;20223;-77
2023/08/03 11:48:01;;;;;;;34.43;6.40;;;27.80;56.80;;;;;;5022205;28;20234;-77
2023/08/03 11:50:28;;;;;;;37.10;6.03;;;27.80;56.80;;;;;;5019018;28;20249;-76
2023/08/03 11:52:59;;;;;;;51.63;8.10;;;27.80;56.70;;;;;;5024927;28;20292;-77
2023/08/03 11:55:28;;;;;;;45.57;7.07;;;27.80;56.80;;;;;;5034315;27;20229;-80
2023/08/03 11:58:11;;;;;;;46.83;7.37;;;27.80;56.70;;;;;;5024009;28;20288;-77
2023/08/03 12:00:43;;;;;;;25.20;5.30;;;27.80;56.60;;;;;;5016188;28;20258;-77
2023/08/03 12:03:10;;;;;;;20.33;5.07;;;27.80;56.60;;;;;;5046151;27;20281;-77
2023/08/03 12:05:46;;;;;;;62.30;8.43;;;27.80;56.60;;;;;;5025083;28;20284;-78
2023/08/03 12:08:17;;;;;;;53.40;8.27;;;27.80;56.60;;;;;;5029713;27;20197;-77
2023/08/03 12:10:57;;;;;;;32.40;5.80;;;27.80;56.60;;;;;;5023147;28;20847;-76
2023/08/03 12:13:24;;;;;;;19.67;4.70;;;27.80;56.60;;;;;;5026279;27;20208;-77
2023/08/03 12:15:53;;;;;;;30.80;6.03;;;27.80;56.60;;;;;;5043655;27;20232;-76
2023/08/03 12:18:21;;;;;;;38.00;6.90;;;27.80;56.60;;;;;;5044243;27;20208;-77
2023/08/03 12:20:49;;;;;;;36.17;6.43;;;27.80;56.60;;;;;;5052474;27;20619;-77
2023/08/03 12:23:16;;;;;;;23.73;5.30;;;27.70;56.60;;;;;;5049936;27;20225;-77
2023/08/03 12:25:43;;;;;;;51.27;8.43;;;27.70;56.60;;;;;;5022504;28;20295;-78
2023/08/03 12:28:10;;;;;;;25.80;5.83;;;27.70;56.50;;;;;;5022526;28;20201;-76
2023/08/03 12:30:37;;;;;;;23.13;5.37;;;27.70;56.60;;;;;;5046524;27;20228;-78
2023/08/03 12:33:07;;;;;;;24.90;5.43;;;27.70;56.60;;;;;;5025313;28;20284;-77
2023/08/03 12:35:34;;;;;;;28.67;6.27;;;27.70;56.60;;;;;;5025520;28;21022;-75
2023/08/03 12:38:01;;;;;;;32.90;6.23;;;27.60;56.60;;;;;;5050471;27;20221;-89
2023/08/03 12:40:28;;;;;;;25.37;5.40;;;27.60;56.60;;;;;;5024617;27;20201;-79
2023/08/03 12:42:56;;;;;;;31.13;5.87;;;27.60;56.60;;;;;;5022940;28;20197;-83